sensor_id;sensor_type;location;lat;lon;timestamp;pressure;altitude;pressure_sealevel;temperature;humidity
81937;BME280;71432;56.558;9.036;2023-07-13T15:46:41;101059.03;;;24.76;42.14
81937;BME280;71432;56.558;9.036;2023-07-13T15:49:08;101076.41;;;24.78;41.86
81937;BME280;71432;56.558;9.036;2023-07-13T15:51:34;101066.97;;;24.76;42.29
81937;BME280;71432;56.558;9.036;2023-07-13T15:54:02;101075.41;;;24.63;40.74
81937;BME280;71432;56.558;9.036;2023-07-13T15:56:34;101076.72;;;24.59;40.45
81937;BME280;71432;56.558;9.036;2023-07-13T15:59:00;101082.00;;;24.51;40.23
81937;BME280;71432;56.558;9.036;2023-07-13T16:01:26;101081.31;;;24.49;40.63
81937;BME280;71432;56.558;9.036;2023-07-13T16:03:51;101084.16;;;24.48;40.12
81937;BME280;71432;56.558;9.036;2023-07-13T16:06:21;101076.22;;;24.48;40.74
81937;BME280;71432;56.558;9.036;2023-07-13T16:08:48;101079.63;;;24.40;40.28
81937;BME280;71432;56.558;9.036;2023-07-13T16:11:35;101082.34;;;24.56;40.77
81937;BME280;71432;56.558;9.036;2023-07-13T16:14:02;101084.78;;;24.42;40.45
81937;BME280;71432;56.558;9.036;2023-07-13T16:16:34;101087.09;;;24.36;40.41
81937;BME280;71432;56.558;9.036;2023-07-13T16:19:03;101092.84;;;24.32;40.49
81937;BME280;71432;56.558;9.036;2023-07-13T16:21:31;101086.44;;;24.43;40.68
81937;BME280;71432;56.558;9.036;2023-07-13T16:23:58;101096.56;;;24.47;39.76
81937;BME280;71432;56.558;9.036;2023-07-13T16:26:35;101098.00;;;24.42;39.88
81937;BME280;71432;56.558;9.036;2023-07-13T16:29:18;101102.25;;;24.26;39.96
81937;BME280;71432;56.558;9.036;2023-07-13T16:34:29;101100.19;;;24.12;40.83
81937;BME280;71432;56.558;9.036;2023-07-13T16:36:55;101102.16;;;24.02;41.09
81937;BME280;71432;56.558;9.036;2023-07-13T16:39:21;101115.25;;;24.12;41.50
81937;BME280;71432;56.558;9.036;2023-07-13T16:41:51;101107.63;;;24.09;41.43
81937;BME280;71432;56.558;9.036;2023-07-13T16:44:19;101117.06;;;24.11;41.70
81937;BME280;71432;56.558;9.036;2023-07-13T16:46:48;101117.13;;;24.19;41.66
81937;BME280;71432;56.558;9.036;2023-07-13T16:49:23;101120.78;;;24.26;41.53
81937;BME280;71432;56.558;9.036;2023-07-13T16:51:50;101121.91;;;24.16;41.59
81937;BME280;71432;56.558;9.036;2023-07-13T16:54:16;101125.16;;;24.10;41.80
81937;BME280;71432;56.558;9.036;2023-07-13T16:56:44;101119.25;;;24.16;41.39
81937;BME280;71432;56.558;9.036;2023-07-13T16:59:14;101126.06;;;24.26;41.27
81937;BME280;71432;56.558;9.036;2023-07-13T17:01:40;101121.81;;;24.33;41.57
81937;BME280;71432;56.558;9.036;2023-07-13T17:04:09;101123.78;;;24.31;41.55
81937;BME280;71432;56.558;9.036;2023-07-13T17:06:35;101135.66;;;24.27;41.24
81937;BME280;71432;56.558;9.036;2023-07-13T17:09:01;101135.88;;;24.34;41.22
81937;BME280;71432;56.558;9.036;2023-07-13T17:11:32;101134.34;;;24.31;42.12
81937;BME280;71432;56.558;9.036;2023-07-13T17:13:57;101138.63;;;24.24;42.04
81937;BME280;71432;56.558;9.036;2023-07-13T17:16:23;101138.28;;;24.19;42.40
81937;BME280;71432;56.558;9.036;2023-07-13T17:18:50;101143.75;;;24.26;42.42
81937;BME280;71432;56.558;9.036;2023-07-13T17:21:16;101137.34;;;24.28;42.52
81937;BME280;71432;56.558;9.036;2023-07-13T17:23:42;101142.97;;;24.33;42.50
81937;BME280;71432;56.558;9.036;2023-07-13T17:26:08;101149.41;;;24.31;41.79
81937;BME280;71432;56.558;9.036;2023-07-13T17:28:35;101146.47;;;24.34;41.71
81937;BME280;71432;56.558;9.036;2023-07-13T17:31:01;101143.47;;;24.29;41.42
81937;BME280;71432;56.558;9.036;2023-07-13T17:33:33;101153.53;;;24.25;41.27
81937;BME280;71432;56.558;9.036;2023-07-13T17:36:02;101153.00;;;24.22;41.18
81937;BME280;71432;56.558;9.036;2023-07-13T17:38:35;101159.97;;;24.23;41.28
81937;BME280;71432;56.558;9.036;2023-07-13T17:41:02;101158.13;;;24.23;41.49
81937;BME280;71432;56.558;9.036;2023-07-13T17:43:29;101154.69;;;24.31;41.45
81937;BME280;71432;56.558;9.036;2023-07-13T17:45:56;101160.09;;;24.21;41.34
81937;BME280;71432;56.558;9.036;2023-07-13T17:48:23;101153.06;;;24.30;41.64
81937;BME280;71432;56.558;9.036;2023-07-13T17:50:49;101155.44;;;24.49;41.08
81937;BME280;71432;56.558;9.036;2023-07-13T17:53:18;101174.31;;;24.62;40.95
81937;BME280;71432;56.558;9.036;2023-07-13T17:55:46;101175.13;;;24.55;40.78
81937;BME280;71432;56.558;9.036;2023-07-13T17:58:13;101166.38;;;24.54;41.26
81937;BME280;71432;56.558;9.036;2023-07-13T18:00:39;101162.28;;;24.68;41.25
81937;BME280;71432;56.558;9.036;2023-07-13T18:03:21;101164.28;;;24.74;40.76
81937;BME280;71432;56.558;9.036;2023-07-13T18:05:49;101160.13;;;24.71;41.03
81937;BME280;71432;56.558;9.036;2023-07-13T18:08:26;101171.41;;;24.73;40.58
81937;BME280;71432;56.558;9.036;2023-07-13T18:10:54;101164.91;;;24.60;40.75
81937;BME280;71432;56.558;9.036;2023-07-13T18:13:20;101172.22;;;24.66;40.77
81937;BME280;71432;56.558;9.036;2023-07-13T18:15:47;101177.16;;;24.61;40.71
81937;BME280;71432;56.558;9.036;2023-07-13T18:18:12;101172.81;;;24.44;40.56
81937;BME280;71432;56.558;9.036;2023-07-13T18:20:39;101177.19;;;24.35;41.00
81937;BME280;71432;56.558;9.036;2023-07-13T18:23:23;101176.81;;;24.22;41.00
81937;BME280;71432;56.558;9.036;2023-07-13T18:25:50;101174.72;;;24.08;41.15
81937;BME280;71432;56.558;9.036;2023-07-13T18:28:18;101179.84;;;24.09;41.08
81937;BME280;71432;56.558;9.036;2023-07-13T18:30:45;101164.34;;;24.14;41.11
81937;BME280;71432;56.558;9.036;2023-07-13T18:33:23;101174.06;;;24.06;41.22
81937;BME280;71432;56.558;9.036;2023-07-13T18:35:50;101174.53;;;24.01;41.35
81937;BME280;71432;56.558;9.036;2023-07-13T18:38:21;101167.72;;;23.99;41.27
81937;BME280;71432;56.558;9.036;2023-07-13T18:40:49;101175.03;;;24.05;41.54
81937;BME280;71432;56.558;9.036;2023-07-13T18:43:14;101171.75;;;24.03;41.42
81937;BME280;71432;56.558;9.036;2023-07-13T18:45:40;101170.84;;;23.94;41.81
81937;BME280;71432;56.558;9.036;2023-07-13T18:48:18;101175.09;;;23.87;42.02
81937;BME280;71432;56.558;9.036;2023-07-13T18:50:45;101173.44;;;23.86;41.99
81937;BME280;71432;56.558;9.036;2023-07-13T18:53:12;101181.38;;;23.86;42.15
81937;BME280;71432;56.558;9.036;2023-07-13T18:55:39;101176.25;;;23.84;42.45
81937;BME280;71432;56.558;9.036;2023-07-13T18:58:05;101182.34;;;23.85;42.66
81937;BME280;71432;56.558;9.036;2023-07-13T19:00:31;101177.00;;;23.77;42.66
81937;BME280;71432;56.558;9.036;2023-07-13T19:02:57;101180.63;;;23.76;42.80
81937;BME280;71432;56.558;9.036;2023-07-13T19:05:32;101192.91;;;23.85;42.66
81937;BME280;71432;56.558;9.036;2023-07-13T19:08:01;101186.59;;;23.78;42.70
81937;BME280;71432;56.558;9.036;2023-07-13T19:10:29;101191.66;;;23.71;42.93
81937;BME280;71432;56.558;9.036;2023-07-13T19:12:58;101189.03;;;23.71;43.03
81937;BME280;71432;56.558;9.036;2023-07-13T19:15:29;101189.56;;;23.75;42.91
81937;BME280;71432;56.558;9.036;2023-07-13T19:17:58;101187.75;;;23.75;42.88
81937;BME280;71432;56.558;9.036;2023-07-13T19:20:26;101190.13;;;23.86;43.12
81937;BME280;71432;56.558;9.036;2023-07-13T19:22:54;101195.69;;;24.01;42.72
81937;BME280;71432;56.558;9.036;2023-07-13T19:25:22;101197.66;;;23.99;42.96
81937;BME280;71432;56.558;9.036;2023-07-13T19:27:51;101198.09;;;23.94;43.22
81937;BME280;71432;56.558;9.036;2023-07-13T19:30:18;101206.25;;;24.01;42.74
81937;BME280;71432;56.558;9.036;2023-07-13T19:32:44;101201.41;;;23.88;43.13
81937;BME280;71432;56.558;9.036;2023-07-13T19:35:10;101208.88;;;23.93;42.96
81937;BME280;71432;56.558;9.036;2023-07-13T19:37:36;101211.09;;;23.80;43.59
81937;BME280;71432;56.558;9.036;2023-07-13T19:40:04;101213.41;;;23.83;43.01
81937;BME280;71432;56.558;9.036;2023-07-13T19:42:31;101219.06;;;23.88;43.26
81937;BME280;71432;56.558;9.036;2023-07-13T19:44:58;101217.41;;;23.87;42.90
81937;BME280;71432;56.558;9.036;2023-07-13T19:47:24;101220.13;;;23.77;43.28
81937;BME280;71432;56.558;9.036;2023-07-13T19:49:51;101223.56;;;23.70;43.50
81937;BME280;71432;56.558;9.036;2023-07-13T19:52:26;101231.94;;;23.65;43.84
81937;BME280;71432;56.558;9.036;2023-07-13T19:54:54;101229.38;;;23.56;43.82
81937;BME280;71432;56.558;9.036;2023-07-13T19:57:23;101239.28;;;23.54;43.89
81937;BME280;71432;56.558;9.036;2023-07-13T19:59:50;101232.63;;;23.49;44.14
81937;BME280;71432;56.558;9.036;2023-07-13T20:02:23;101239.09;;;23.37;44.42
81937;BME280;71432;56.558;9.036;2023-07-13T20:04:49;101239.06;;;23.47;44.26
81937;BME280;71432;56.558;9.036;2023-07-13T20:07:16;101244.25;;;23.39;44.55
81937;BME280;71432;56.558;9.036;2023-07-13T20:09:43;101245.34;;;23.36;44.22
81937;BME280;71432;56.558;9.036;2023-07-13T20:12:14;101250.78;;;23.35;44.77
81937;BME280;71432;56.558;9.036;2023-07-13T20:14:41;101259.84;;;23.32;44.82
81937;BME280;71432;56.558;9.036;2023-07-13T20:19:47;101267.44;;;23.45;44.62
81937;BME280;71432;56.558;9.036;2023-07-13T20:22:12;101262.94;;;23.28;44.13
81937;BME280;71432;56.558;9.036;2023-07-13T20:24:37;101256.06;;;23.35;43.55
81937;BME280;71432;56.558;9.036;2023-07-13T20:27:04;101266.59;;;23.44;44.49
81937;BME280;71432;56.558;9.036;2023-07-13T20:29:29;101266.16;;;23.49;44.57
81937;BME280;71432;56.558;9.036;2023-07-13T20:31:55;101269.16;;;23.54;43.86
81937;BME280;71432;56.558;9.036;2023-07-13T20:34:25;101267.06;;;23.58;44.66
81937;BME280;71432;56.558;9.036;2023-07-13T20:36:52;101272.56;;;23.64;44.18
81937;BME280;71432;56.558;9.036;2023-07-13T20:39:19;101267.38;;;23.55;44.77
81937;BME280;71432;56.558;9.036;2023-07-13T20:41:45;101269.09;;;23.64;44.78
81937;BME280;71432;56.558;9.036;2023-07-13T20:44:10;101270.06;;;23.63;44.75
81937;BME280;71432;56.558;9.036;2023-07-13T20:46:36;101274.75;;;23.69;43.38
81937;BME280;71432;56.558;9.036;2023-07-13T20:49:01;101275.47;;;23.71;44.27
81937;BME280;71432;56.558;9.036;2023-07-13T20:51:27;101282.25;;;23.73;44.48
81937;BME280;71432;56.558;9.036;2023-07-13T20:53:53;101285.63;;;23.83;43.58
81937;BME280;71432;56.558;9.036;2023-07-13T20:56:21;101286.22;;;23.77;44.23
81937;BME280;71432;56.558;9.036;2023-07-13T20:58:47;101287.91;;;23.78;44.66
81937;BME280;71432;56.558;9.036;2023-07-13T21:01:33;101293.41;;;23.85;44.59
81937;BME280;71432;56.558;9.036;2023-07-13T21:04:02;101289.94;;;23.84;44.92
81937;BME280;71432;56.558;9.036;2023-07-13T21:06:28;101288.34;;;23.91;44.89
81937;BME280;71432;56.558;9.036;2023-07-13T21:08:57;101289.03;;;23.93;45.21
81937;BME280;71432;56.558;9.036;2023-07-13T21:11:23;101292.47;;;23.94;45.35
81937;BME280;71432;56.558;9.036;2023-07-13T21:13:49;101296.13;;;23.93;45.41
81937;BME280;71432;56.558;9.036;2023-07-13T21:16:26;101297.09;;;23.92;45.31
81937;BME280;71432;56.558;9.036;2023-07-13T21:18:52;101297.47;;;23.97;45.41
81937;BME280;71432;56.558;9.036;2023-07-13T21:21:23;101290.53;;;23.96;45.25
81937;BME280;71432;56.558;9.036;2023-07-13T21:23:50;101296.34;;;24.00;45.62
81937;BME280;71432;56.558;9.036;2023-07-13T21:26:17;101305.78;;;24.02;45.51
81937;BME280;71432;56.558;9.036;2023-07-13T21:28:44;101304.63;;;24.05;45.37
81937;BME280;71432;56.558;9.036;2023-07-13T21:31:27;101304.13;;;24.01;45.31
81937;BME280;71432;56.558;9.036;2023-07-13T21:33:57;101308.94;;;24.06;45.20
81937;BME280;71432;56.558;9.036;2023-07-13T21:36:23;101302.69;;;24.07;45.23
81937;BME280;71432;56.558;9.036;2023-07-13T21:38:54;101312.13;;;24.09;45.10
81937;BME280;71432;56.558;9.036;2023-07-13T21:43:51;101309.00;;;24.14;45.13
81937;BME280;71432;56.558;9.036;2023-07-13T21:46:16;101316.38;;;24.20;45.43
81937;BME280;71432;56.558;9.036;2023-07-13T21:48:42;101313.56;;;24.21;45.10
81937;BME280;71432;56.558;9.036;2023-07-13T21:51:20;101316.38;;;24.20;45.25
81937;BME280;71432;56.558;9.036;2023-07-13T21:53:46;101310.38;;;24.18;45.33
81937;BME280;71432;56.558;9.036;2023-07-13T21:56:12;101315.59;;;24.10;45.36
81937;BME280;71432;56.558;9.036;2023-07-13T21:58:38;101310.63;;;24.07;45.64
81937;BME280;71432;56.558;9.036;2023-07-13T22:01:04;101319.06;;;24.10;45.50
81937;BME280;71432;56.558;9.036;2023-07-13T22:03:37;101323.22;;;24.13;45.39
81937;BME280;71432;56.558;9.036;2023-07-13T22:06:04;101330.31;;;24.12;45.57
81937;BME280;71432;56.558;9.036;2023-07-13T22:08:35;101309.00;;;24.14;45.44
81937;BME280;71432;56.558;9.036;2023-07-13T22:11:26;101326.69;;;24.13;45.36
81937;BME280;71432;56.558;9.036;2023-07-13T22:13:52;101322.97;;;24.16;45.53
81937;BME280;71432;56.558;9.036;2023-07-13T22:16:23;101324.75;;;24.15;45.73
81937;BME280;71432;56.558;9.036;2023-07-13T22:18:50;101321.66;;;24.20;45.49
81937;BME280;71432;56.558;9.036;2023-07-13T22:21:17;101325.03;;;24.12;45.65
81937;BME280;71432;56.558;9.036;2023-07-13T22:23:43;101319.22;;;24.09;45.82
81937;BME280;71432;56.558;9.036;2023-07-13T22:28:50;101319.69;;;24.04;45.86
81937;BME280;71432;56.558;9.036;2023-07-13T22:31:16;101325.28;;;24.01;46.24
81937;BME280;71432;56.558;9.036;2023-07-13T22:33:42;101325.41;;;24.00;46.14
81937;BME280;71432;56.558;9.036;2023-07-13T22:36:09;101320.97;;;24.00;46.06
81937;BME280;71432;56.558;9.036;2023-07-13T22:38:35;101321.28;;;23.97;46.15
81937;BME280;71432;56.558;9.036;2023-07-13T22:41:01;101322.94;;;23.98;46.25
81937;BME280;71432;56.558;9.036;2023-07-13T22:43:27;101312.66;;;23.95;46.24
81937;BME280;71432;56.558;9.036;2023-07-13T22:45:57;101315.31;;;23.95;46.39
81937;BME280;71432;56.558;9.036;2023-07-13T22:48:26;101323.25;;;23.95;46.18
81937;BME280;71432;56.558;9.036;2023-07-13T22:50:53;101320.06;;;23.91;46.18
81937;BME280;71432;56.558;9.036;2023-07-13T22:53:33;101318.25;;;23.92;46.17
81937;BME280;71432;56.558;9.036;2023-07-13T22:55:59;101320.22;;;23.90;46.37
81937;BME280;71432;56.558;9.036;2023-07-13T22:58:25;101323.41;;;23.93;46.24
81937;BME280;71432;56.558;9.036;2023-07-13T23:00:54;101330.66;;;23.91;46.07
81937;BME280;71432;56.558;9.036;2023-07-13T23:03:22;101323.69;;;23.90;46.30
81937;BME280;71432;56.558;9.036;2023-07-13T23:05:49;101331.81;;;23.89;46.35
81937;BME280;71432;56.558;9.036;2023-07-13T23:08:16;101329.81;;;23.91;46.08
81937;BME280;71432;56.558;9.036;2023-07-13T23:10:42;101334.44;;;23.89;46.45
81937;BME280;71432;56.558;9.036;2023-07-13T23:13:09;101328.31;;;23.88;46.37
81937;BME280;71432;56.558;9.036;2023-07-13T23:15:36;101328.31;;;23.88;46.30
81937;BME280;71432;56.558;9.036;2023-07-13T23:18:01;101329.81;;;23.91;46.71
81937;BME280;71432;56.558;9.036;2023-07-13T23:20:32;101324.53;;;23.91;46.21
81937;BME280;71432;56.558;9.036;2023-07-13T23:22:57;101330.78;;;23.90;46.47
81937;BME280;71432;56.558;9.036;2023-07-13T23:25:24;101325.50;;;23.90;46.33
81937;BME280;71432;56.558;9.036;2023-07-13T23:27:51;101332.47;;;23.91;46.28
81937;BME280;71432;56.558;9.036;2023-07-13T23:30:20;101326.19;;;23.92;46.29
81937;BME280;71432;56.558;9.036;2023-07-13T23:32:46;101320.06;;;23.91;46.27
81937;BME280;71432;56.558;9.036;2023-07-13T23:35:17;101325.38;;;23.91;46.59
81937;BME280;71432;56.558;9.036;2023-07-13T23:37:44;101333.44;;;23.90;46.33
81937;BME280;71432;56.558;9.036;2023-07-13T23:40:18;101337.88;;;23.89;46.44
81937;BME280;71432;56.558;9.036;2023-07-13T23:42:44;101332.78;;;23.88;46.47
81937;BME280;71432;56.558;9.036;2023-07-13T23:45:20;101338.06;;;23.88;46.40
81937;BME280;71432;56.558;9.036;2023-07-13T23:47:48;101332.09;;;23.86;46.63
81937;BME280;71432;56.558;9.036;2023-07-13T23:50:25;101333.06;;;23.85;46.51
81937;BME280;71432;56.558;9.036;2023-07-13T23:52:51;101333.75;;;23.87;46.63
81937;BME280;71432;56.558;9.036;2023-07-13T23:55:20;101326.66;;;23.87;46.45
81937;BME280;71432;56.558;9.036;2023-07-13T23:57:46;101333.75;;;23.87;46.61
